Home   Weather   USA   Winder   Past weeks
Flag for USA

Past Weather in Winder, Georgia, USA — Yesterday and Last 2 Weeks

Currently: 50 °F. Sunny. (Weather station: Winder-Barrow Airport, USA). See more current weather

Past Weather in Winder — Graph

°F

Winder Temperature Yesterday

Maximum temperature yesterday: 61 °F (at 10:35 am)
Minimum temperature yesterday: 41 °F (at 11:35 pm)
Average temperature yesterday: 54 °F

High & Low Weather Summary for the Past Weeks

 TemperatureHumidityPressure
High82 °F (Apr 13, 4:35 pm)100% (Apr 9, 5:15 am)30.27 "Hg (Apr 9, 5:15 am)
Low36 °F (Apr 22, 3:35 am)17% (Apr 12, 6:35 pm)29.66 "Hg (Apr 11, 5:55 pm)
Average62 °F57%29.94 "Hg
* Reported Apr 7 10:15 am — Apr 22 10:35 am, Winder. Weather by CustomWeather, © 2021

Note: Actual official high and low records may vary slightly from our data, if they occured in-between our weather recording intervals... More about our weather records

Winder Weather History for the Previous 24 Hours

Scroll right to see more
 ConditionsComfort  
Time TempWeatherWind HumidityBarometerVisibility
10:35 am
Thu, Apr 22
50 °FSunny.No wind28%30.27 "HgN/A
10:15 am48 °FSunny.3 mph32%30.27 "HgN/A
9:55 am46 °FSunny.No wind40%30.27 "HgN/A
9:35 am46 °FSunny.5 mph40%30.27 "HgN/A
9:15 am45 °FSunny.5 mph49%30.26 "HgN/A
8:55 am43 °FSunny.6 mph53%30.26 "HgN/A
8:35 am41 °FSunny.7 mph61%30.25 "HgN/A
8:15 am39 °FSunny.7 mph65%30.25 "HgN/A
7:55 am36 °FSunny.No wind75%30.23 "HgN/A
7:35 am36 °FSunny.No wind70%30.23 "HgN/A
7:15 am36 °FSunny.No wind70%30.22 "HgN/A
6:55 am36 °FSunny.No wind70%30.22 "HgN/A
5:55 am36 °FClear.7 mph70%30.21 "HgN/A
5:35 am36 °FClear.7 mph70%30.21 "HgN/A
5:15 am36 °FClear.7 mph70%30.20 "HgN/A
4:55 am36 °FClear.5 mph70%30.20 "HgN/A
4:35 am36 °FClear.5 mph70%30.20 "HgN/A
4:15 am36 °FClear.6 mph70%30.20 "HgN/A
3:55 am36 °FClear.6 mph70%30.20 "HgN/A
3:35 am36 °FClear.5 mph70%30.20 "HgN/A
3:10 am37 °FClear.6 mph65%30.19 "HgN/A
2:55 am37 °FClear.5 mph65%30.19 "HgN/A
2:35 am37 °FClear.6 mph65%30.19 "HgN/A
2:15 am37 °FClear.6 mph60%30.19 "HgN/A
1:55 am37 °FClear.No wind60%30.20 "HgN/A
1:15 am39 °FClear.5 mph52%30.21 "HgN/A
12:55 am37 °FClear.6 mph56%30.21 "HgN/A
12:35 am41 °FClear.3 mph49%30.20 "HgN/A
12:15 am41 °FClear.3 mph49%30.20 "HgN/A
11:55 pm
Wed, Apr 21
41 °FClear.5 mph49%30.20 "HgN/A
11:35 pm41 °FClear.7 mph49%30.19 "HgN/A
11:15 pm43 °FClear.9 mph46%30.18 "HgN/A
10:55 pm43 °FClear.6 mph46%30.18 "HgN/A
10:35 pm43 °FClear.8 mph42%30.17 "HgN/A
10:15 pm45 °FClear.9 mph39%30.17 "HgN/A
9:55 pm45 °FClear.12 mph42%30.16 "HgN/A
9:35 pm45 °FClear.8 mph42%30.15 "HgN/A
9:15 pm46 °FClear.12 mph40%30.13 "HgN/A
8:55 pm46 °FClear.8 mph43%30.11 "HgN/A
8:15 pm50 °FClear.12 mph35%30.08 "HgN/A
7:55 pm50 °FSunny.14 mph35%30.08 "HgN/A
7:35 pm52 °FSunny.14 mph35%30.07 "HgN/A
7:15 pm52 °FSunny.15 mph35%30.06 "HgN/A
6:55 pm54 °FSunny.15 mph35%30.06 "HgN/A
6:35 pm54 °FSunny.15 mph33%30.06 "HgN/A
5:55 pm55 °FSunny.15 mph33%30.04 "HgN/A
5:35 pm55 °FSunny.16 mph33%30.04 "HgN/A
5:15 pm55 °FSunny.16 mph36%30.03 "HgN/A
4:55 pm55 °FSunny.15 mph36%30.03 "HgN/A
4:35 pm57 °FSunny.15 mph33%30.03 "HgN/A
4:15 pm55 °FSunny.16 mph36%30.03 "HgN/A
3:55 pm57 °FSunny.16 mph36%30.03 "HgN/A
3:15 pm57 °FSunny.16 mph36%30.02 "HgN/A
2:55 pm59 °FSunny.13 mph34%30.02 "HgN/A
2:15 pm59 °FSunny.14 mph36%30.03 "HgN/A
1:55 pm59 °FSunny.17 mph36%30.03 "HgN/A
1:35 pm59 °FSunny.15 mph36%30.02 "HgN/A
1:15 pm59 °FSunny.17 mph36%30.02 "HgN/A
12:55 pm59 °FSunny.20 mph36%30.02 "HgN/A
12:35 pm61 °FSunny.17 mph36%30.02 "HgN/A
12:15 pm61 °FSunny.14 mph39%30.02 "HgN/A
11:55 am61 °FSunny.14 mph42%30.01 "HgN/A
11:35 am61 °FSunny.17 mph39%30.01 "HgN/A
11:15 am61 °FSunny.13 mph42%30.00 "HgN/A
Weather by CustomWeather, © 2021

See weather overview